CXADT SUMO-SUPE
Flight info
| Callsign | CXADT |
|---|---|
| Flight time | N/A |
| Altitude | 3500 |
| Route | SUPE |
| Aircraft | C337/L-SFG/C |
Departure
| Time | N/A |
|---|---|
| Airport | Cerro Largo International Airport (SUMO) |
Arrival
| Time | 2026-05-05 22:07 |
|---|---|
| Airport | El Jagüel / Punta del Este Airport (SUPE) |
| Time | Latitude | Longitude | Altitude | Speed | Heading |
|---|---|---|---|---|---|
| 2026-05-05 21:31 | -33.29515 | -54.47465 | 3463 ft | 176 kts | 198° |
| 2026-05-05 21:31 | -33.30712 | -54.47787 | 3463 ft | 175 kts | 198° |
| 2026-05-05 21:32 | -33.31629 | -54.48034 | 3459 ft | 175 kts | 198° |
| 2026-05-05 21:32 | -33.33967 | -54.48664 | 3462 ft | 176 kts | 198° |
| 2026-05-05 21:32 | -33.35163 | -54.48988 | 3467 ft | 176 kts | 198° |
| 2026-05-05 21:33 | -33.36360 | -54.49311 | 3462 ft | 177 kts | 198° |
| 2026-05-05 21:33 | -33.37562 | -54.49636 | 3457 ft | 177 kts | 197° |
| 2026-05-05 21:33 | -33.38759 | -54.49958 | 3459 ft | 177 kts | 197° |
| 2026-05-05 21:33 | -33.39942 | -54.50276 | 3463 ft | 176 kts | 198° |
| 2026-05-05 21:34 | -33.41154 | -54.50604 | 3463 ft | 176 kts | 197° |
| 2026-05-05 21:34 | -33.42337 | -54.50926 | 3460 ft | 177 kts | 197° |
| 2026-05-05 21:34 | -33.43537 | -54.51250 | 3460 ft | 177 kts | 197° |
| 2026-05-05 21:34 | -33.44731 | -54.51573 | 3461 ft | 176 kts | 197° |
| 2026-05-05 21:35 | -33.45925 | -54.51893 | 3463 ft | 176 kts | 197° |
| 2026-05-05 21:35 | -33.47120 | -54.52216 | 3464 ft | 176 kts | 197° |
| 2026-05-05 21:35 | -33.48317 | -54.52540 | 3466 ft | 177 kts | 197° |
| 2026-05-05 21:35 | -33.49522 | -54.52867 | 3464 ft | 177 kts | 197° |
| 2026-05-05 21:36 | -33.50717 | -54.53192 | 3463 ft | 176 kts | 197° |
| 2026-05-05 21:36 | -33.51916 | -54.53517 | 3464 ft | 176 kts | 197° |
| 2026-05-05 21:36 | -33.53110 | -54.53839 | 3464 ft | 176 kts | 197° |
| 2026-05-05 21:36 | -33.54311 | -54.54164 | 3464 ft | 177 kts | 197° |
| 2026-05-05 21:37 | -33.55508 | -54.54488 | 3459 ft | 177 kts | 197° |
| 2026-05-05 21:37 | -33.56465 | -54.54748 | 3462 ft | 176 kts | 197° |
| 2026-05-05 21:37 | -33.57662 | -54.55074 | 3460 ft | 176 kts | 197° |
| 2026-05-05 21:37 | -33.58860 | -54.55398 | 3460 ft | 177 kts | 197° |
| 2026-05-05 21:38 | -33.60045 | -54.55718 | 3460 ft | 177 kts | 197° |
| 2026-05-05 21:38 | -33.61245 | -54.56045 | 3457 ft | 177 kts | 197° |
| 2026-05-05 21:38 | -33.62442 | -54.56371 | 3455 ft | 176 kts | 197° |
| 2026-05-05 21:38 | -33.63636 | -54.56694 | 3451 ft | 176 kts | 197° |
| 2026-05-05 21:39 | -33.64829 | -54.57018 | 3459 ft | 176 kts | 197° |
| 2026-05-05 21:39 | -33.66027 | -54.57343 | 3454 ft | 177 kts | 197° |
| 2026-05-05 21:39 | -33.67231 | -54.57671 | 3453 ft | 178 kts | 197° |
| 2026-05-05 21:39 | -33.68439 | -54.58000 | 3457 ft | 178 kts | 197° |
| 2026-05-05 21:40 | -33.69647 | -54.58328 | 3455 ft | 178 kts | 197° |
| 2026-05-05 21:40 | -33.70853 | -54.58656 | 3455 ft | 178 kts | 197° |
| 2026-05-05 21:40 | -33.72063 | -54.58986 | 3461 ft | 178 kts | 197° |
| 2026-05-05 21:40 | -33.73271 | -54.59315 | 3454 ft | 179 kts | 197° |
| 2026-05-05 21:41 | -33.74469 | -54.59641 | 3459 ft | 179 kts | 197° |
| 2026-05-05 21:41 | -33.75687 | -54.59972 | 3453 ft | 179 kts | 197° |
| 2026-05-05 21:41 | -33.76900 | -54.60302 | 3456 ft | 179 kts | 197° |
| 2026-05-05 21:41 | -33.78113 | -54.60632 | 3454 ft | 179 kts | 197° |
| 2026-05-05 21:42 | -33.79326 | -54.60963 | 3455 ft | 179 kts | 197° |
| 2026-05-05 21:42 | -33.80541 | -54.61295 | 3458 ft | 179 kts | 197° |
| 2026-05-05 21:42 | -33.81761 | -54.61627 | 3460 ft | 180 kts | 197° |
| 2026-05-05 21:42 | -33.82984 | -54.61961 | 3455 ft | 180 kts | 197° |
| 2026-05-05 21:43 | -33.84206 | -54.62295 | 3456 ft | 180 kts | 197° |
| 2026-05-05 21:43 | -33.85427 | -54.62628 | 3459 ft | 180 kts | 197° |
| 2026-05-05 21:43 | -33.86650 | -54.62962 | 3457 ft | 180 kts | 197° |
| 2026-05-05 21:43 | -33.87873 | -54.63296 | 3455 ft | 180 kts | 197° |
| 2026-05-05 21:44 | -33.89099 | -54.63631 | 3455 ft | 181 kts | 197° |
| 2026-05-05 21:44 | -33.90324 | -54.63965 | 3457 ft | 181 kts | 197° |
| 2026-05-05 21:44 | -33.91553 | -54.64302 | 3456 ft | 181 kts | 197° |
| 2026-05-05 21:44 | -33.92765 | -54.64634 | 3460 ft | 181 kts | 197° |
| 2026-05-05 21:45 | -33.94008 | -54.64973 | 3456 ft | 181 kts | 197° |
| 2026-05-05 21:45 | -33.95235 | -54.65308 | 3451 ft | 180 kts | 197° |
| 2026-05-05 21:45 | -33.96454 | -54.65644 | 3452 ft | 179 kts | 197° |
| 2026-05-05 21:45 | -33.97670 | -54.65977 | 3451 ft | 180 kts | 197° |
| 2026-05-05 21:46 | -33.98892 | -54.66309 | 3456 ft | 180 kts | 197° |
| 2026-05-05 21:46 | -34.00102 | -54.66640 | 3453 ft | 181 kts | 197° |
| 2026-05-05 21:46 | -34.01330 | -54.66978 | 3452 ft | 180 kts | 197° |
| 2026-05-05 21:46 | -34.02553 | -54.67315 | 3452 ft | 180 kts | 197° |
| 2026-05-05 21:47 | -34.03774 | -54.67649 | 3454 ft | 180 kts | 197° |
| 2026-05-05 21:47 | -34.04997 | -54.67983 | 3454 ft | 180 kts | 197° |
| 2026-05-05 21:47 | -34.06219 | -54.68318 | 3452 ft | 180 kts | 197° |
| 2026-05-05 21:47 | -34.07441 | -54.68654 | 3457 ft | 180 kts | 197° |
| 2026-05-05 21:48 | -34.08666 | -54.68991 | 3450 ft | 180 kts | 197° |
| 2026-05-05 21:48 | -34.09881 | -54.69323 | 3452 ft | 179 kts | 197° |
| 2026-05-05 21:48 | -34.11096 | -54.69656 | 3455 ft | 179 kts | 197° |
| 2026-05-05 21:48 | -34.12315 | -54.69994 | 3454 ft | 180 kts | 197° |
| 2026-05-05 21:49 | -34.13535 | -54.70329 | 3453 ft | 180 kts | 197° |
| 2026-05-05 21:49 | -34.14756 | -54.70663 | 3455 ft | 180 kts | 197° |
| 2026-05-05 21:49 | -34.15976 | -54.70998 | 3454 ft | 180 kts | 197° |
| 2026-05-05 21:49 | -34.17194 | -54.71336 | 3457 ft | 180 kts | 197° |
| 2026-05-05 21:50 | -34.18412 | -54.71672 | 3455 ft | 179 kts | 197° |
| 2026-05-05 21:50 | -34.19628 | -54.72005 | 3451 ft | 179 kts | 197° |
| 2026-05-05 21:50 | -34.20846 | -54.72338 | 3456 ft | 179 kts | 197° |
| 2026-05-05 21:50 | -34.22065 | -54.72674 | 3460 ft | 180 kts | 197° |
| 2026-05-05 21:51 | -34.23269 | -54.73008 | 3459 ft | 180 kts | 197° |
| 2026-05-05 21:51 | -34.24488 | -54.73344 | 3459 ft | 180 kts | 197° |
| 2026-05-05 21:51 | -34.25710 | -54.73679 | 3457 ft | 180 kts | 197° |
| 2026-05-05 21:51 | -34.26932 | -54.74016 | 3456 ft | 180 kts | 197° |
| 2026-05-05 21:52 | -34.29374 | -54.74692 | 3457 ft | 180 kts | 197° |
| 2026-05-05 21:52 | -34.30600 | -54.75029 | 3457 ft | 181 kts | 196° |
| 2026-05-05 21:52 | -34.31828 | -54.75367 | 3457 ft | 181 kts | 197° |
| 2026-05-05 21:53 | -34.33057 | -54.75707 | 3446 ft | 180 kts | 197° |
| 2026-05-05 21:53 | -34.34274 | -54.76043 | 3449 ft | 179 kts | 197° |
| 2026-05-05 21:53 | -34.35488 | -54.76380 | 3452 ft | 179 kts | 196° |
| 2026-05-05 21:53 | -34.36693 | -54.76711 | 3450 ft | 180 kts | 197° |
| 2026-05-05 21:54 | -34.37914 | -54.77046 | 3451 ft | 180 kts | 197° |
| 2026-05-05 21:54 | -34.39134 | -54.77385 | 3451 ft | 180 kts | 197° |
| 2026-05-05 21:54 | -34.40358 | -54.77727 | 3453 ft | 181 kts | 197° |
| 2026-05-05 21:54 | -34.41583 | -54.78069 | 3452 ft | 181 kts | 196° |
| 2026-05-05 21:55 | -34.42808 | -54.78407 | 3453 ft | 180 kts | 196° |
| 2026-05-05 21:55 | -34.44028 | -54.78741 | 3450 ft | 180 kts | 196° |
| 2026-05-05 21:55 | -34.45246 | -54.79076 | 3449 ft | 179 kts | 196° |
| 2026-05-05 21:55 | -34.46466 | -54.79417 | 3451 ft | 180 kts | 196° |
| 2026-05-05 21:56 | -34.47685 | -54.79756 | 3454 ft | 180 kts | 196° |
| 2026-05-05 21:56 | -34.48905 | -54.80093 | 3453 ft | 180 kts | 196° |
| 2026-05-05 21:56 | -34.50125 | -54.80430 | 3457 ft | 180 kts | 196° |
| 2026-05-05 21:56 | -34.51347 | -54.80769 | 3448 ft | 180 kts | 196° |
| 2026-05-05 21:57 | -34.52563 | -54.81108 | 3452 ft | 179 kts | 197° |
| 2026-05-05 21:57 | -34.53780 | -54.81446 | 3450 ft | 179 kts | 196° |
| 2026-05-05 21:57 | -34.54994 | -54.81784 | 3450 ft | 179 kts | 196° |
| 2026-05-05 21:57 | -34.56210 | -54.82121 | 3446 ft | 179 kts | 196° |
| 2026-05-05 21:58 | -34.57412 | -54.82453 | 3452 ft | 179 kts | 196° |
| 2026-05-05 21:58 | -34.58627 | -54.82790 | 3447 ft | 178 kts | 196° |
| 2026-05-05 21:58 | -34.59839 | -54.83129 | 3450 ft | 179 kts | 196° |
| 2026-05-05 21:58 | -34.61055 | -54.83468 | 3447 ft | 180 kts | 196° |
| 2026-05-05 21:59 | -34.62277 | -54.83807 | 3449 ft | 180 kts | 196° |
| 2026-05-05 21:59 | -34.63499 | -54.84146 | 3453 ft | 180 kts | 196° |
| 2026-05-05 21:59 | -34.64702 | -54.84480 | 3450 ft | 180 kts | 196° |
| 2026-05-05 21:59 | -34.65927 | -54.84822 | 3451 ft | 180 kts | 196° |
| 2026-05-05 22:00 | -34.67148 | -54.85163 | 3453 ft | 180 kts | 196° |
| 2026-05-05 22:00 | -34.68355 | -54.85498 | 3453 ft | 180 kts | 196° |
| 2026-05-05 22:00 | -34.69577 | -54.85838 | 3450 ft | 180 kts | 197° |
| 2026-05-05 22:00 | -34.70801 | -54.86180 | 3453 ft | 181 kts | 197° |
| 2026-05-05 22:01 | -34.72028 | -54.86522 | 3450 ft | 181 kts | 197° |
| 2026-05-05 22:01 | -34.73256 | -54.86864 | 3448 ft | 181 kts | 197° |
| 2026-05-05 22:01 | -34.74480 | -54.87206 | 3448 ft | 180 kts | 197° |
| 2026-05-05 22:01 | -34.75703 | -54.87548 | 3446 ft | 180 kts | 197° |
| 2026-05-05 22:02 | -34.76929 | -54.87891 | 3448 ft | 181 kts | 197° |
| 2026-05-05 22:02 | -34.78157 | -54.88233 | 3449 ft | 181 kts | 196° |
| 2026-05-05 22:02 | -34.79388 | -54.88576 | 3458 ft | 181 kts | 197° |
| 2026-05-05 22:02 | -34.80565 | -54.89062 | 3452 ft | 178 kts | 208° |
| 2026-05-05 22:03 | -34.81690 | -54.89689 | 3455 ft | 178 kts | 209° |
| 2026-05-05 22:03 | -34.82815 | -54.90332 | 3457 ft | 179 kts | 209° |
| 2026-05-05 22:03 | -34.83933 | -54.90958 | 3452 ft | 180 kts | 208° |
| 2026-05-05 22:03 | -34.85078 | -54.91569 | 3454 ft | 180 kts | 207° |
| 2026-05-05 22:04 | -34.86225 | -54.92176 | 3456 ft | 180 kts | 207° |
| 2026-05-05 22:04 | -34.87381 | -54.92769 | 3333 ft | 186 kts | 206° |
| 2026-05-05 22:04 | -34.88616 | -54.93357 | 3108 ft | 187 kts | 205° |
| 2026-05-05 22:04 | -34.89774 | -54.93894 | 3113 ft | 172 kts | 204° |
| 2026-05-05 22:05 | -34.90873 | -54.94400 | 3075 ft | 167 kts | 204° |
| 2026-05-05 22:05 | -34.92032 | -54.94950 | 2617 ft | 180 kts | 204° |
| 2026-05-05 22:05 | -34.93187 | -54.95513 | 2460 ft | 174 kts | 205° |
| 2026-05-05 22:05 | -34.94281 | -54.96048 | 2468 ft | 165 kts | 204° |
| 2026-05-05 22:06 | -34.95338 | -54.96545 | 2462 ft | 159 kts | 198° |
| 2026-05-05 22:06 | -34.96412 | -54.96433 | 2448 ft | 158 kts | 164° |
| 2026-05-05 22:06 | -34.97418 | -54.95925 | 2450 ft | 157 kts | 150° |
| 2026-05-05 22:06 | -34.98307 | -54.95203 | 2455 ft | 154 kts | 129° |
| 2026-05-05 22:07 | -34.98693 | -54.94025 | 2383 ft | 148 kts | 94° |
| 2026-05-05 22:07 | -34.98364 | -54.92911 | 812 ft | 0 kts | 44° |
| 2026-05-05 22:07 | -34.97584 | -54.92418 | 572 ft | 190 kts | 12° |
| 2026-05-05 22:07 | -34.96447 | -54.92473 | 793 ft | 147 kts | 359° |
| 2026-05-05 22:08 | -34.95522 | -54.92447 | 744 ft | 127 kts | 5° |
| 2026-05-05 22:08 | -34.94612 | -54.92345 | 540 ft | 142 kts | 8° |
| 2026-05-05 22:08 | -34.93685 | -54.92309 | 428 ft | 102 kts | 1° |
| 2026-05-05 22:08 | -34.93067 | -54.92242 | 315 ft | 87 kts | 7° |
| 2026-05-05 22:09 | -34.92449 | -54.92162 | 286 ft | 92 kts | 4° |
| 2026-05-05 22:09 | -34.91804 | -54.92102 | 192 ft | 93 kts | 5° |
| 2026-05-05 22:09 | -34.91211 | -54.92045 | 64 ft | 79 kts | 4° |
| 2026-05-05 22:09 | -34.90857 | -54.92015 | 46 ft | 9 kts | 9° |
| 2026-05-05 22:10 | -34.90887 | -54.92004 | 47 ft | 23 kts | 186° |
| 2026-05-05 22:10 | -34.91111 | -54.92028 | 55 ft | 29 kts | 183° |
| 2026-05-05 22:10 | -34.91277 | -54.92041 | 61 ft | 19 kts | 186° |
| 2026-05-05 22:10 | -34.91358 | -54.92004 | 61 ft | 13 kts | 94° |
| 2026-05-05 22:11 | -34.91365 | -54.91887 | 58 ft | 13 kts | 121° |
| 2026-05-05 22:11 | -34.91450 | -54.91881 | 60 ft | 7 kts | 146° |
| 2026-05-05 22:11 | -34.91453 | -54.91819 | 56 ft | 6 kts | 91° |
| 2026-05-05 22:11 | -34.91438 | -54.91819 | 50 ft | 9 kts | 301° |
| 2026-05-05 22:12 | -34.91437 | -54.91832 | 51 ft | 0 kts | 272° |